Ride Results

Meander Valley 'Pink Ride' (17-05-2014)
Ride distance: 80.0 km

Outcomes - Meander Valley 'Pink Ride' (17-05-2014)
Division No. of Entries Retired / DNE Completed Withdrawn Ineligible V/O Percentage Completed
HW 14 - 9 2 - 3 64.29%
MW 25 - 15 1 - 9 60.00%
LW 19 - 13 2 - 4 68.42%
JN 15 - 11 1 - 3 73.33%
Totals 73 - 48 6 - 19 65.75%
Results - Meander Valley 'Pink Ride' (17-05-2014)
No. Rider Horse Place Time Leg Speeds Total
Km/Hr
H/R bpm
Heavyweight
80 Noel Lockhart Lockleigh Park Silver Comet 1 (BC) 6:11:00 13.1, 12.6 12.94 38, 40, 45 (Avg:42)
38 Tony Purton Beer Street Bewitched 2 6:47:00 11.7, 11.8 11.79 31, 44, 43 (Avg:43)
137 John Shoobridge Tex 3 6:58:00 12.2, 10.8 11.48 35, 44, 54 (Avg:49)
290 Dakota Wolf Awarran Park Princely Aura 4 6:59:00 13.1, 10.1 11.46 36, 44, 51 (Avg:47)
122 Ged Nicklason Wongawol Digger 5 7:22:00 11.7, 10.1 10.86 34, 42, 60 (Avg:51)
29 Nicole Huxtable Ma Khsham 6 7:47:00 10.6, 9.9 10.28 29, 44, 56 (Avg:50)
254 Deb Wyllie Castlebar Artis 7 7:53:00 10.3, 9.9 10.15 28, 39, 45 (Avg:42)
176 Greg Burford Mahazin Cassanova 8 8:26:00 10.3, 8.7 9.49 36, 49, 52 (Avg:50)
199 Dennis Foley Jnr Maktoum Sheik 8 8:26:00 10.4, 8.6 9.49 35, 45, 50 (Avg:47)
278 Kylie Williams Ma Merbaa Lame L2 0:00:00 10.2, 10.6 - 35, 40, 49 (Avg:44)
82 Mark Dunn Calypso Withdrawn L1 0:00:00 - - 39, 49 (Avg:49)
G Greg Henry Bellawongarah Beau Withdrawn L1 0:00:00 - - 36, 52 (Avg:52)
94 Natalie Humphries Duo Park Almighty Heart Rate L1 0:00:00 8.8 - 32, 68 (Avg:68)
272 Jai Ingram Ma Twag Lame L1 0:00:00 10.2 - 35, 45 (Avg:45)
Middleweight
158 Steve Wilson Echo Aladin 1 (BC) 5:37:37 16.3, 12.5 14.22 26, 41, 44 (Avg:42)
69 Tracey Wyllie Conderosa Arassim 2 5:39:00 12.4, 16.3 14.16 35, 44, 49 (Avg:46)
99 Heather Johnson Black Heart Dashar 3 5:48:43 16.3, 11.8 13.76 38, 45, 50 (Avg:47)
57 Tania Jago Rivergum Ripper 4 6:10:40 14.8, 11.5 12.95 32, 40, 50 (Avg:45)
264 Ellie Maddick Davlyn Park Dekota 5 6:40:00 12.4, 11.5 12.00 32, 40, 46 (Avg:43)
216 David Evelyn Kalody Park Eclipse 6 7:16:00 12.1, 10.0 11.01 32, 46, 54 (Avg:50)
143 Pauline Goodwin Marley Hosanna 6 7:16:00 12.1, 10.0 11.01 33, 39, 44 (Avg:41)
114 Tara Nicklason Wattlelea Zaharra 8 7:22:00 11.7, 10.1 10.86 45, 50, 59 (Avg:54)
136 Kaye Mitchell Beer Street Dezhda 9 7:36:00 11.7, 9.5 10.53 35, 47, 46 (Avg:46)
92 Blaine Astell AAA Spotlight 10 7:46:00 10.6, 9.9 10.30 39, 42, 46 (Avg:44)
281 Lucy Hobson Madeline Park Show Girl 11 7:47:00 10.6, 9.9 10.28 37, 46, 55 (Avg:50)
180 Nicole Ford Conderosa Orion 12 7:51:00 10.3, 9.9 10.19 37, 45, 50 (Avg:47)
179 Debbie Grull Hampton Park Contessa 12 7:51:00 11.1, 9.3 10.19 37, 45, 53 (Avg:49)
111 Royce Martin DVS Suni Bronson 14 8:07:00 10.0, 9.6 9.86 41, 44, 53 (Avg:48)
282 Laura Belbin Shay 15 8:09:00 10.6, 9.0 9.82 31, 51, 59 (Avg:55)
15 Sonia Brown-Cordell River Oak Cayman Heart Rate L2 0:00:00 10.3, 9.9 - 47, 47, 68 (Avg:57)
207 Graham Bucknell Kairo Heart Rate L2 0:00:00 15.7, 10.8 - 36, 48, 66 (Avg:57)
185 Mikaela Jago Undurra Geisha Lame L2 0:00:00 12.4, 13.4 - 38, 43, 56 (Avg:49)
50 Joanne Marshall Rivergum Renegade Lame L2 0:00:00 12.6, 9.7 - 39, 53, 58 (Avg:55)
261 Danielle Taylor DVS Drought Master Heart Rate L2 0:00:00 10.0, 9.6 - 39, 41, 63 (Avg:52)
253 Kelly Woodhouse Mindari High Que Heart Rate L2 0:00:00 10.3, 9.9 - 40, 53, 72 (Avg:62)
262 Andrew Miles Beau Withdrawn L1 0:00:00 - - 45, 47 (Avg:47)
76 Karin Morris Rivergum Skye Lame L1 0:00:00 13.5 - 36, 48 (Avg:48)
32 Donna Wall Diablo Lame L1 0:00:00 10.0 - 48, 42 (Avg:42)
266 Sarah Wells Performance Park Rock a Fella Lame L1 0:00:00 10.3 - 41, 50 (Avg:50)
Lightweight
125 Brooke Brown-Cordell Cognac 1 (BC) 5:39:01 14.8, 13.5 14.16 35, 45, 47 (Avg:46)
83 Angie Clark Cameo Izaiah 2 6:04:00 13.6, 12.7 13.19 34, 47, 49 (Avg:48)
42 Dianne Walsh Razorback Silver Wings 3 6:11:00 12.6, 13.2 12.94 37, 40, 47 (Avg:43)
150 Emily Shadbolt Tanbark Banjo 4 6:25:00 12.4, 12.4 12.47 30, 42, 48 (Avg:45)
12 Anita Hutchins Malricia Nevra 5 7:31:00 11.2, 10.0 10.64 37, 48, 51 (Avg:49)
238 Julie Carter Kalody Park Pure Steel 6 7:34:00 10.7, 10.3 10.57 32, 40, 48 (Avg:44)
6 Christine King Clearwater Tigerlily 7 7:36:00 11.5, 9.6 10.53 30, 41, 50 (Avg:45)
90 Angela Hawks Cyclone Larry 8 7:46:00 10.6, 9.9 10.30 38, 44, 51 (Avg:47)
235 Jan Clement Kalody Park Empire Blaze 9 7:51:00 11.1, 9.3 10.19 35, 47, 48 (Avg:47)
100 Trish Smith Anglesea Piccolo 9 7:51:00 11.1, 9.3 10.19 39, 42, 49 (Avg:45)
203 Ellie Woodhouse Shiranna Secrets n Roses 11 7:53:00 10.3, 9.9 10.15 37, 44, 51 (Avg:47)
271 Jessie Herman DVS Bellara 12 8:07:00 10.0, 9.6 9.86 38, 44, 51 (Avg:47)
135 Breaana Smith Lockleigh Park Just Jesting 13 8:23:00 9.3, 9.7 9.54 35, 47, 51 (Avg:49)
79 Shannon Hill Lockleigh Park Lucky Martin Heart Rate L2 0:00:00 9.3, 9.7 - 36, 49, 61 (Avg:55)
115 Jenny Keygan Woodsong Kasanova Lame L2 0:00:00 13.5, 11.6 - 29, 48, 57 (Avg:52)
191 Loren Simonetta Shirkira Lame L2 0:00:00 10.7, 10.3 - 37, 41, 46 (Avg:43)
182 Fran Jordan Tierview Saadat Lame L1 0:00:00 13.5 - 34, 49 (Avg:49)
1 Ann Richards Kintamani Shakil Withdrawn L1 0:00:00 - - 34, 51 (Avg:51)
N Samantha Sward Kalody Park Ashkalarn Withdrawn L1 0:00:00 - - 41, 51 (Avg:51)
Junior
209 Grace Huxtable Rocky Point Red Jasper 1 (BC) 5:48:42 16.4, 11.8 13.77 35, 44, 48 (Avg:46)
77 Brett Lockhart The Hobbit 2 6:11:00 13.1, 12.6 12.94 34, 44, 54 (Avg:49)
190 Alice Mitchell Beer Street Banshee 3 6:24:00 16.3, 10.1 12.50 36, 46, 45 (Avg:45)
154 Sarah Parker Moment 3 6:24:00 16.4, 10.0 12.50 32, 48, 47 (Avg:47)
127 Jaz Hutchins Boogie 5 7:31:00 11.2, 10.0 10.64 35, 45, 51 (Avg:48)
274 Ella Carter Sadie 6 7:34:00 10.7, 10.3 10.57 37, 44, 51 (Avg:47)
277 Heather Colbeck Aviva-Shey 7 7:53:00 10.3, 9.9 10.15 36, 45, 46 (Avg:45)
70 Charlotte Wyllie Shah Ha 7 7:53:00 10.3, 9.9 10.15 32, 37, 52 (Avg:44)
286 Pyper Page Torryburn Spirit of Padron 9 8:00:00 10.4, 9.5 10.00 32, 45, 56 (Avg:50)
285 Bronte Page PK Spirit 9 8:00:00 10.4, 9.5 10.00 32, 38, 49 (Avg:43)
129 Kirsty Sward Neilly Woodsong Zadonk 11 8:23:00 9.4, 9.5 9.54 33, 45, 51 (Avg:48)
249 Brandon Foley Maxi Lame L2 0:00:00 10.4, 8.6 - 30, 44, 49 (Avg:46)
74 Felicity Perry Mindari Highly Independent Lame L2 0:00:00 10.3, 9.9 - 35, 44, 60 (Avg:52)
162 Ali Smith Espirit Jeramiah Heart Rate L2 0:00:00 11.2, 10.0 - 48, 50, 65 (Avg:57)
157a David Anderson Jnr Highland View Rocket Withdrawn L1 0:00:00 - - 34, 47 (Avg:47)